Time;durP1;ratioP1;P1;durP2;ratioP2;P2;SDS_P1;SDS_P2;PMS_P1;PMS_P2;Temp;Humidity;BMP_temperature;BMP_pressure;BME280_temperature;BME280_humidity;BME280_pressure;Samples;Min_cycle;Max_cycle;Signal;HPM_P1;HPM_P2
2022/08/17 00:01:08;;;;;;;41.40;36.83;;;20.80;99.90;;;;;;5089095;28;20048;-50
2022/08/17 00:03:40;;;;;;;44.00;38.20;;;20.70;99.90;;;;;;5090559;28;20570;-50
2022/08/17 00:06:12;;;;;;;43.65;38.83;;;20.80;99.90;;;;;;5088848;28;20041;-50
2022/08/17 00:08:38;;;;;;;42.88;38.17;;;20.70;99.90;;;;;;5088420;28;20131;-50
2022/08/17 00:11:06;;;;;;;41.35;36.90;;;20.70;99.90;;;;;;5087089;28;20043;-52
2022/08/17 00:13:44;;;;;;;41.72;37.22;;;20.70;99.90;;;;;;5090531;28;20044;-50
2022/08/17 00:16:17;;;;;;;43.08;37.00;;;20.60;99.90;;;;;;5089813;28;20032;-52
2022/08/17 00:18:43;;;;;;;40.97;36.08;;;20.50;99.90;;;;;;5089226;28;20063;-52
2022/08/17 00:21:10;;;;;;;38.42;34.28;;;20.60;99.90;;;;;;5089838;28;20044;-51
2022/08/17 00:23:37;;;;;;;39.95;35.70;;;20.50;99.90;;;;;;5086962;28;20096;-52
2022/08/17 00:26:02;;;;;;;40.50;34.17;;;20.40;99.90;;;;;;5089550;28;20082;-52
2022/08/17 00:28:28;;;;;;;40.92;36.10;;;20.40;99.90;;;;;;5088642;28;20048;-51
2022/08/17 00:30:54;;;;;;;40.80;35.78;;;20.40;99.90;;;;;;5086445;28;20626;-52
2022/08/17 00:33:26;;;;;;;41.78;36.47;;;20.40;99.90;;;;;;5089651;28;20052;-49
2022/08/17 00:35:53;;;;;;;39.58;35.33;;;20.30;99.90;;;;;;5089285;28;20052;-49
2022/08/17 00:38:19;;;;;;;39.88;35.50;;;20.30;99.90;;;;;;5091138;28;20040;-50
2022/08/17 00:40:51;;;;;;;39.35;34.60;;;20.30;99.90;;;;;;5087751;28;20047;-49
2022/08/17 00:43:22;;;;;;;39.10;34.83;;;20.30;99.90;;;;;;5088514;28;20043;-49
2022/08/17 00:45:48;;;;;;;40.83;36.43;;;20.30;99.90;;;;;;5088810;28;20074;-51
2022/08/17 00:48:14;;;;;;;40.63;36.33;;;20.20;99.90;;;;;;5087164;28;20086;-51
2022/08/17 00:50:54;;;;;;;41.33;35.67;;;20.20;99.90;;;;;;5089321;28;20036;-50
2022/08/17 00:53:21;;;;;;;41.13;36.63;;;20.20;99.90;;;;;;5087427;28;20049;-49
2022/08/17 00:55:47;;;;;;;39.58;35.30;;;20.20;99.90;;;;;;5088529;28;20097;-51
2022/08/17 00:58:13;;;;;;;40.80;36.40;;;20.20;99.90;;;;;;5088498;28;20113;-52
2022/08/17 01:00:41;;;;;;;38.17;34.08;;;20.20;99.90;;;;;;5087811;28;20044;-50
2022/08/17 01:03:24;;;;;;;40.40;35.78;;;20.30;99.90;;;;;;5087798;28;20040;-49
2022/08/17 01:05:52;;;;;;;40.00;35.63;;;20.20;99.90;;;;;;5087391;28;20067;-50
2022/08/17 01:08:23;;;;;;;39.83;35.70;;;20.20;99.90;;;;;;5087850;28;20079;-49
2022/08/17 01:10:52;;;;;;;37.78;33.70;;;20.20;99.90;;;;;;5086778;28;20048;-50
2022/08/17 01:13:19;;;;;;;39.90;34.90;;;20.20;99.90;;;;;;5087732;28;20053;-49
2022/08/17 01:15:57;;;;;;;40.95;34.83;;;20.20;99.90;;;;;;5086537;28;20036;-51
2022/08/17 01:18:25;;;;;;;37.58;33.53;;;20.20;99.90;;;;;;5086700;28;20123;-49
2022/08/17 01:20:54;;;;;;;37.13;33.22;;;20.20;99.90;;;;;;5090151;28;20501;-48
2022/08/17 01:23:23;;;;;;;36.65;32.67;;;20.20;99.90;;;;;;5091346;28;20065;-51
2022/08/17 01:25:57;;;;;;;36.60;32.63;;;20.10;99.90;;;;;;5092031;28;20047;-50
2022/08/17 01:28:25;;;;;;;36.80;33.00;;;20.10;99.90;;;;;;5099819;28;20085;-48
2022/08/17 01:30:53;;;;;;;37.13;33.00;;;20.10;99.90;;;;;;5103041;28;20044;-49
2022/08/17 01:33:19;;;;;;;36.53;32.72;;;20.10;99.90;;;;;;5102922;28;20046;-49
2022/08/17 01:35:45;;;;;;;35.92;32.03;;;20.00;99.90;;;;;;5102193;28;20079;-49
2022/08/17 01:38:10;;;;;;;35.33;31.55;;;20.00;99.90;;;;;;5102621;28;20043;-51
2022/08/17 01:40:41;;;;;;;35.17;30.88;;;20.00;99.90;;;;;;5101674;28;20104;-51
2022/08/17 01:43:18;;;;;;;36.38;31.85;;;20.00;99.90;;;;;;5103171;28;20087;-51
2022/08/17 01:45:48;;;;;;;36.80;31.50;;;19.90;99.90;;;;;;5102320;28;20047;-50
2022/08/17 01:48:14;;;;;;;36.05;32.30;;;19.90;99.90;;;;;;5102589;28;20884;-49
2022/08/17 01:50:43;;;;;;;35.00;30.42;;;19.90;99.90;;;;;;5102249;28;20111;-52
2022/08/17 01:53:33;;;;;;;34.45;30.80;;;19.90;99.90;;;;;;5101525;28;20067;-51
2022/08/17 01:56:09;;;;;;;35.78;31.45;;;19.90;99.90;;;;;;5102618;28;20048;-52
2022/08/17 01:58:36;;;;;;;34.90;30.35;;;19.90;99.90;;;;;;5101907;28;20055;-50
2022/08/17 02:01:01;;;;;;;36.28;32.22;;;19.90;99.90;;;;;;5102447;28;20107;-49
2022/08/17 02:03:28;;;;;;;36.95;31.73;;;19.80;99.90;;;;;;5102539;28;20125;-50
2022/08/17 02:05:54;;;;;;;36.53;32.55;;;19.80;99.90;;;;;;5101744;28;20032;-49
2022/08/17 02:08:21;;;;;;;37.75;33.72;;;19.80;99.90;;;;;;5102628;28;20066;-50
2022/08/17 02:10:48;;;;;;;37.40;33.00;;;19.80;99.90;;;;;;5101180;28;20500;-52
2022/08/17 02:13:14;;;;;;;38.42;34.33;;;19.80;99.90;;;;;;5102662;28;20036;-52
2022/08/17 02:15:40;;;;;;;35.70;31.77;;;19.80;99.90;;;;;;5101323;28;20052;-50
2022/08/17 02:18:06;;;;;;;32.33;28.92;;;19.70;99.90;;;;;;5102121;28;20038;-50
2022/08/17 02:20:32;;;;;;;32.45;28.13;;;19.70;99.90;;;;;;5102215;28;20096;-51
2022/08/17 02:23:02;;;;;;;29.63;26.25;;;19.60;99.90;;;;;;5101659;28;20452;-49
2022/08/17 02:25:30;;;;;;;27.50;24.58;;;19.50;99.90;;;;;;5102330;28;20040;-48
2022/08/17 02:27:56;;;;;;;25.08;22.48;;;19.40;99.90;;;;;;5101038;28;20040;-52
2022/08/17 02:30:23;;;;;;;25.33;22.63;;;19.30;99.90;;;;;;5100440;28;20048;-49
2022/08/17 02:32:51;;;;;;;25.85;23.20;;;19.30;99.90;;;;;;5100235;28;20044;-51
2022/08/17 02:35:17;;;;;;;26.30;23.60;;;19.30;99.90;;;;;;5101524;28;20032;-49
2022/08/17 02:37:42;;;;;;;26.63;23.73;;;19.30;99.90;;;;;;5101664;28;20046;-51
2022/08/17 02:40:09;;;;;;;25.67;23.00;;;19.30;99.90;;;;;;5100994;28;20087;-49
2022/08/17 02:42:38;;;;;;;25.50;22.77;;;19.20;99.90;;;;;;5101985;28;20077;-50
2022/08/17 02:45:09;;;;;;;25.00;22.35;;;19.20;99.90;;;;;;5100664;28;20492;-50
2022/08/17 02:47:36;;;;;;;23.02;20.60;;;19.20;99.90;;;;;;5101800;28;20102;-51
2022/08/17 02:50:02;;;;;;;28.27;24.38;;;19.20;99.90;;;;;;5100686;28;20088;-50
2022/08/17 02:52:36;;;;;;;26.17;23.25;;;19.20;99.90;;;;;;5101439;28;20040;-49
2022/08/17 02:55:05;;;;;;;27.65;23.50;;;19.20;99.90;;;;;;5101667;28;20069;-51
2022/08/17 02:57:30;;;;;;;41.30;26.45;;;19.20;99.90;;;;;;5100502;28;20056;-50
2022/08/17 02:59:56;;;;;;;31.33;26.88;;;19.20;99.90;;;;;;5101808;28;20169;-52
2022/08/17 03:02:22;;;;;;;31.60;26.98;;;19.20;99.90;;;;;;5100286;28;20085;-52
2022/08/17 03:04:47;;;;;;;34.08;27.95;;;19.10;99.90;;;;;;5101369;28;20051;-51
2022/08/17 03:07:14;;;;;;;31.73;27.05;;;19.10;99.90;;;;;;5100281;28;20060;-50
2022/08/17 03:09:39;;;;;;;32.17;27.73;;;19.10;99.90;;;;;;5100671;28;20386;-52
2022/08/17 03:12:08;;;;;;;37.50;28.33;;;19.10;99.90;;;;;;5101110;28;20067;-49
2022/08/17 03:14:39;;;;;;;32.47;26.20;;;19.10;99.90;;;;;;5100174;28;20052;-49
2022/08/17 03:17:05;;;;;;;29.23;23.13;;;19.10;99.90;;;;;;5100967;28;20050;-50
2022/08/17 03:19:31;;;;;;;29.75;23.95;;;19.00;99.90;;;;;;5098345;28;20064;-51
2022/08/17 03:21:59;;;;;;;34.88;28.20;;;19.00;99.90;;;;;;5100815;28;20138;-52
2022/08/17 03:24:25;;;;;;;35.22;26.85;;;19.00;99.90;;;;;;5099976;28;20099;-50
2022/08/17 03:26:50;;;;;;;30.77;26.25;;;19.00;99.90;;;;;;5100500;28;20035;-48
2022/08/17 03:29:18;;;;;;;38.60;26.00;;;19.00;99.90;;;;;;5100817;28;20046;-48
2022/08/17 03:31:47;;;;;;;31.90;25.65;;;19.00;99.90;;;;;;5099942;28;20040;-49
2022/08/17 03:34:15;;;;;;;37.08;25.05;;;19.00;99.90;;;;;;5099599;28;20171;-49
2022/08/17 03:36:40;;;;;;;28.40;24.20;;;18.90;99.90;;;;;;5099764;28;20076;-52
2022/08/17 03:39:06;;;;;;;33.10;24.77;;;18.90;99.90;;;;;;5100085;28;20082;-50
2022/08/17 03:41:32;;;;;;;38.88;23.58;;;18.90;99.90;;;;;;5100041;28;20044;-49
2022/08/17 03:43:58;;;;;;;30.38;22.38;;;18.90;99.90;;;;;;5100275;28;20051;-50
2022/08/17 03:57:25;;;;;;;37.65;20.55;;;18.80;99.90;;;;;;5099193;28;20569;-51
2022/08/17 03:59:52;;;;;;;20.98;18.90;;;18.90;99.90;;;;;;5100274;28;20048;-50
2022/08/17 04:02:25;;;;;;;19.40;17.48;;;18.80;99.90;;;;;;5099237;28;20035;-51
2022/08/17 04:04:51;;;;;;;29.23;17.80;;;18.80;99.90;;;;;;5100398;28;20044;-52
2022/08/17 04:07:19;;;;;;;19.23;17.20;;;18.70;99.90;;;;;;5099641;28;20044;-50
2022/08/17 04:09:45;;;;;;;21.23;17.30;;;18.60;99.90;;;;;;5099520;28;20078;-50
2022/08/17 04:12:14;;;;;;;19.83;17.92;;;18.60;99.90;;;;;;5100070;28;20044;-51
2022/08/17 04:14:40;;;;;;;18.85;16.77;;;18.60;99.90;;;;;;5098989;28;20048;-49
2022/08/17 04:17:06;;;;;;;18.70;16.90;;;18.50;99.90;;;;;;5099918;28;20044;-49
2022/08/17 04:19:31;;;;;;;46.75;17.98;;;18.60;99.90;;;;;;5097430;28;20044;-52
2022/08/17 04:21:57;;;;;;;25.50;16.38;;;18.50;99.90;;;;;;5100048;28;20051;-52
2022/08/17 04:24:23;;;;;;;19.25;17.35;;;18.50;99.90;;;;;;5099302;28;20129;-52
2022/08/17 04:26:49;;;;;;;19.95;17.85;;;18.50;99.90;;;;;;5098181;28;20512;-52
2022/08/17 04:29:18;;;;;;;21.17;19.15;;;18.50;99.90;;;;;;5099790;28;20051;-51
2022/08/17 04:31:44;;;;;;;21.10;18.98;;;18.50;99.90;;;;;;5098583;28;20044;-50
2022/08/17 04:34:10;;;;;;;21.73;19.40;;;18.50;99.90;;;;;;5099865;28;20048;-51
2022/08/17 04:36:36;;;;;;;20.55;18.40;;;18.50;99.90;;;;;;5098291;28;20481;-52
2022/08/17 04:39:02;;;;;;;24.63;19.73;;;18.60;99.90;;;;;;5099150;28;20086;-52
2022/08/17 04:44:12;;;;;;;22.70;18.95;;;18.50;99.90;;;;;;5098500;28;20108;-51
2022/08/17 04:46:38;;;;;;;27.15;19.88;;;18.50;99.90;;;;;;5099562;28;20032;-50
2022/08/17 04:49:08;;;;;;;25.63;20.48;;;18.60;99.90;;;;;;5097958;28;20105;-50
2022/08/17 04:51:40;;;;;;;24.42;19.63;;;18.60;99.90;;;;;;5099133;28;20044;-52
2022/08/17 04:54:16;;;;;;;22.85;20.60;;;18.60;99.90;;;;;;5098100;28;20048;-51
2022/08/17 04:56:43;;;;;;;22.77;20.58;;;18.60;99.90;;;;;;5098615;28;20424;-49
2022/08/17 04:59:15;;;;;;;22.80;20.60;;;18.60;99.90;;;;;;5099544;28;20051;-50
2022/08/17 05:01:44;;;;;;;21.92;19.73;;;18.70;99.90;;;;;;5098365;28;20075;-51
2022/08/17 05:04:16;;;;;;;23.98;21.67;;;18.70;99.90;;;;;;5099322;28;20047;-51
2022/08/17 05:06:42;;;;;;;23.40;21.20;;;18.70;99.90;;;;;;5098007;28;20046;-52
2022/08/17 05:09:08;;;;;;;25.77;23.17;;;18.80;99.90;;;;;;5098735;28;20119;-51
2022/08/17 05:11:34;;;;;;;25.90;23.33;;;18.80;99.90;;;;;;5098830;28;20044;-51
2022/08/17 05:13:59;;;;;;;30.17;24.42;;;18.80;99.90;;;;;;5099175;28;20096;-49
2022/08/17 05:16:27;;;;;;;31.17;22.40;;;18.80;99.90;;;;;;5099380;28;20051;-51
2022/08/17 05:18:53;;;;;;;31.38;24.58;;;18.90;99.90;;;;;;5098058;28;20040;-52
2022/08/17 05:21:21;;;;;;;24.10;21.70;;;18.90;99.90;;;;;;5099323;28;20050;-49
2022/08/17 05:23:46;;;;;;;24.23;21.73;;;19.00;99.90;;;;;;5097860;28;20052;-52
2022/08/17 05:26:16;;;;;;;36.75;23.58;;;19.00;99.90;;;;;;5098842;28;20097;-53
2022/08/17 05:28:42;;;;;;;25.23;22.77;;;19.00;99.90;;;;;;5098218;28;20092;-50
2022/08/17 05:31:08;;;;;;;25.83;23.25;;;19.00;99.90;;;;;;5098680;28;20115;-51
2022/08/17 05:33:36;;;;;;;27.70;23.90;;;19.00;99.90;;;;;;5099039;28;20161;-50
2022/08/17 05:36:04;;;;;;;26.05;23.40;;;19.00;99.90;;;;;;5096573;28;20048;-49
2022/08/17 05:38:31;;;;;;;26.90;24.10;;;19.00;99.90;;;;;;5098593;28;20040;-50
2022/08/17 05:40:59;;;;;;;28.48;25.42;;;19.10;99.90;;;;;;5098072;28;20773;-50
2022/08/17 05:43:30;;;;;;;30.27;27.08;;;19.10;99.90;;;;;;5097334;28;20055;-49
2022/08/17 05:46:25;;;;;;;28.90;25.52;;;19.10;99.90;;;;;;5095059;28;20075;-49
2022/08/17 05:48:56;;;;;;;27.92;24.98;;;19.20;99.90;;;;;;5092798;28;20087;-49
2022/08/17 05:51:39;;;;;;;28.00;25.05;;;19.20;99.90;;;;;;5095512;28;20524;-50
2022/08/17 05:54:20;;;;;;;29.05;26.02;;;19.30;99.90;;;;;;5094315;28;20044;-48
2022/08/17 05:56:57;;;;;;;30.05;26.73;;;19.30;99.90;;;;;;5094812;28;20536;-49
2022/08/17 05:59:44;;;;;;;31.13;27.20;;;19.30;99.90;;;;;;5094729;28;20130;-49
2022/08/17 06:02:44;;;;;;;30.45;27.08;;;19.30;99.90;;;;;;5090665;28;20115;-48
2022/08/17 06:05:27;;;;;;;31.13;27.77;;;19.40;99.90;;;;;;5079157;28;20091;-51
2022/08/17 06:08:19;;;;;;;34.22;29.40;;;19.40;99.90;;;;;;5075346;28;20082;-51
2022/08/17 06:11:00;;;;;;;31.83;28.17;;;19.40;99.90;;;;;;5076600;28;20109;-48
2022/08/17 06:13:50;;;;;;;33.55;29.52;;;19.40;99.90;;;;;;5078158;28;20063;-49
2022/08/17 06:16:21;;;;;;;32.28;28.27;;;19.40;99.90;;;;;;5078694;28;20587;-48
2022/08/17 06:18:57;;;;;;;34.30;30.30;;;19.40;99.90;;;;;;5094080;28;20070;-50
2022/08/17 06:21:24;;;;;;;32.40;28.58;;;19.50;99.90;;;;;;5098376;28;20083;-53
2022/08/17 06:23:58;;;;;;;34.53;30.17;;;19.50;99.90;;;;;;5097472;28;20047;-50
2022/08/17 06:26:29;;;;;;;33.85;29.73;;;19.50;99.90;;;;;;5098549;28;20063;-50
2022/08/17 06:29:29;;;;;;;33.65;30.00;;;19.40;99.90;;;;;;5098515;28;20522;-52
2022/08/17 06:31:56;;;;;;;36.25;31.10;;;19.50;99.90;;;;;;5095717;28;20060;-52
2022/08/17 06:34:21;;;;;;;36.17;31.13;;;19.50;99.90;;;;;;5098721;28;20075;-50
2022/08/17 06:37:24;;;;;;;38.55;31.92;;;19.40;99.90;;;;;;5097511;28;20044;-49
2022/08/17 06:40:26;;;;;;;37.25;32.22;;;19.30;99.90;;;;;;5077560;28;20446;-50
2022/08/17 06:43:19;;;;;;;36.63;31.55;;;19.30;99.90;;;;;;5078137;28;20060;-49
2022/08/17 06:45:53;;;;;;;35.65;31.30;;;19.30;99.90;;;;;;5055261;28;20617;-51
2022/08/17 06:48:31;;;;;;;37.72;32.92;;;19.50;99.90;;;;;;5077513;28;20044;-49
2022/08/17 06:51:03;;;;;;;36.97;32.00;;;19.60;99.90;;;;;;5077918;28;20052;-49
2022/08/17 06:53:31;;;;;;;42.40;36.95;;;19.70;99.90;;;;;;5076899;28;20044;-49
2022/08/17 06:56:00;;;;;;;41.53;36.33;;;19.80;99.90;;;;;;5077545;28;20119;-51
2022/08/17 06:58:30;;;;;;;44.03;36.42;;;19.80;99.90;;;;;;5077194;28;20054;-48
2022/08/17 07:00:59;;;;;;;46.90;37.80;;;20.00;99.90;;;;;;5084824;28;20055;-49
2022/08/17 07:03:37;;;;;;;44.92;36.30;;;20.00;99.90;;;;;;5098292;28;20119;-51
2022/08/17 07:06:31;;;;;;;44.33;38.53;;;20.10;99.90;;;;;;5097358;28;20050;-51
2022/08/17 07:09:02;;;;;;;44.60;37.25;;;20.20;99.90;;;;;;5096132;28;20115;-52
2022/08/17 07:11:46;;;;;;;45.78;38.17;;;20.20;99.90;;;;;;5095715;28;20051;-49
2022/08/17 07:14:24;;;;;;;45.47;38.78;;;20.30;99.90;;;;;;5097465;28;20043;-48
2022/08/17 07:16:53;;;;;;;45.70;39.50;;;20.30;99.90;;;;;;5098105;28;20044;-50
2022/08/17 07:19:30;;;;;;;47.65;39.80;;;20.30;99.90;;;;;;5076294;28;20519;-49
2022/08/17 07:22:24;;;;;;;48.72;39.97;;;20.30;99.90;;;;;;5076070;28;20112;-50
2022/08/17 07:25:06;;;;;;;50.60;40.40;;;20.30;99.90;;;;;;5077204;28;20056;-49
2022/08/17 07:27:44;;;;;;;47.90;39.90;;;20.40;99.90;;;;;;5075774;28;20066;-54
2022/08/17 07:30:19;;;;;;;50.90;41.72;;;20.40;99.90;;;;;;5076727;28;20048;-54
2022/08/17 07:32:58;;;;;;;51.08;41.83;;;20.40;99.90;;;;;;5075837;28;20037;-53
2022/08/17 07:35:27;;;;;;;48.53;41.00;;;20.50;99.90;;;;;;5076234;28;20060;-52
2022/08/17 07:38:18;;;;;;;47.20;41.58;;;20.50;99.90;;;;;;5082647;28;20051;-52
2022/08/17 07:40:56;;;;;;;51.38;43.13;;;20.60;99.90;;;;;;5095599;28;20078;-51
2022/08/17 07:43:39;;;;;;;55.60;43.83;;;20.60;99.90;;;;;;5097274;28;20055;-51
2022/08/17 07:49:16;;;;;;;53.47;44.45;;;20.70;99.90;;;;;;5095637;28;20517;-49
2022/08/17 07:51:55;;;;;;;51.90;44.65;;;20.80;99.90;;;;;;5097060;28;20071;-49
2022/08/17 07:54:35;;;;;;;51.88;44.38;;;20.90;99.90;;;;;;5096561;28;20099;-50
2022/08/17 07:57:03;;;;;;;52.90;42.33;;;21.00;99.90;;;;;;5087523;28;20036;-52
2022/08/17 07:59:29;;;;;;;48.67;42.47;;;21.00;99.90;;;;;;5086725;28;20067;-53
2022/08/17 08:02:04;;;;;;;49.90;42.42;;;21.10;99.90;;;;;;5079095;28;20050;-53
2022/08/17 08:04:38;;;;;;;53.75;43.55;;;21.10;99.90;;;;;;5085252;28;20074;-51
2022/08/17 08:07:23;;;;;;;50.28;42.88;;;21.20;99.90;;;;;;5084719;28;20130;-53
2022/08/17 08:09:58;;;;;;;49.10;40.92;;;21.30;99.90;;;;;;5084933;28;20052;-53
2022/08/17 08:12:33;;;;;;;48.65;41.80;;;21.20;99.90;;;;;;5086765;28;20107;-51
2022/08/17 08:15:12;;;;;;;51.30;41.95;;;21.20;99.90;;;;;;5083553;28;20056;-51
2022/08/17 08:17:48;;;;;;;51.10;39.17;;;21.30;99.90;;;;;;5084926;28;20048;-53
2022/08/17 08:20:14;;;;;;;48.15;40.75;;;21.30;99.90;;;;;;5082042;28;20528;-52
2022/08/17 08:22:42;;;;;;;46.70;40.15;;;21.30;99.90;;;;;;5074817;28;20591;-53
2022/08/17 08:25:20;;;;;;;44.72;39.03;;;21.30;99.90;;;;;;5075226;28;20076;-53
2022/08/17 08:28:00;;;;;;;47.22;41.03;;;21.30;99.90;;;;;;5073948;28;20060;-52
2022/08/17 08:30:27;;;;;;;42.60;37.92;;;21.30;99.90;;;;;;5075625;28;20044;-51
2022/08/17 08:33:06;;;;;;;46.35;39.92;;;21.20;99.90;;;;;;5075260;28;20096;-55
2022/08/17 08:35:43;;;;;;;44.47;38.25;;;21.20;99.90;;;;;;5075488;28;20060;-52
2022/08/17 08:38:28;;;;;;;44.30;38.40;;;21.10;99.90;;;;;;5084599;28;20060;-52
2022/08/17 08:41:18;;;;;;;45.53;40.63;;;21.10;99.90;;;;;;5095289;28;20343;-51
2022/08/17 08:44:15;;;;;;;46.88;40.35;;;21.10;99.90;;;;;;5095895;28;20071;-52
2022/08/17 08:47:17;;;;;;;45.53;40.20;;;21.10;99.90;;;;;;5089126;28;20065;-54
2022/08/17 08:50:14;;;;;;;45.47;40.55;;;21.20;99.90;;;;;;5086502;28;20058;-54
2022/08/17 08:52:50;;;;;;;49.95;42.47;;;21.20;99.90;;;;;;5086839;28;20072;-53
2022/08/17 08:55:35;;;;;;;45.10;39.53;;;21.10;99.90;;;;;;5086793;28;20059;-53
2022/08/17 08:58:11;;;;;;;46.97;40.17;;;21.00;99.90;;;;;;5077587;28;20045;-53
2022/08/17 09:00:45;;;;;;;46.85;41.63;;;21.00;99.90;;;;;;5078167;28;20056;-52
2022/08/17 09:03:49;;;;;;;47.30;39.20;;;20.90;99.90;;;;;;5078433;28;20036;-50
2022/08/17 09:06:33;;;;;;;46.03;40.00;;;21.00;99.90;;;;;;5075634;28;20048;-51
2022/08/17 09:09:40;;;;;;;49.33;42.88;;;20.80;99.90;;;;;;5077868;28;20048;-53
2022/08/17 09:12:20;;;;;;;47.45;41.38;;;20.90;99.90;;;;;;5057734;28;20049;-53
2022/08/17 09:14:52;;;;;;;45.88;41.00;;;20.90;99.90;;;;;;5077691;28;20053;-56
2022/08/17 09:17:31;;;;;;;47.38;42.33;;;20.80;99.90;;;;;;5081665;28;20032;-55
2022/08/17 09:20:29;;;;;;;48.58;42.15;;;20.80;99.90;;;;;;5097940;28;20599;-55
2022/08/17 09:23:06;;;;;;;44.78;39.58;;;20.80;99.90;;;;;;5096926;28;20063;-53
2022/08/17 09:25:44;;;;;;;47.72;42.53;;;20.90;99.90;;;;;;5098203;28;20044;-55
2022/08/17 09:28:22;;;;;;;48.85;42.70;;;21.00;99.90;;;;;;5097907;28;20040;-53
2022/08/17 09:31:03;;;;;;;47.55;42.33;;;21.20;99.90;;;;;;5095969;28;20048;-53
2022/08/17 09:33:32;;;;;;;46.40;41.53;;;21.50;99.90;;;;;;5087641;28;20468;-51
2022/08/17 09:35:58;;;;;;;42.10;37.65;;;21.70;99.90;;;;;;5086657;28;20069;-53
2022/08/17 09:38:47;;;;;;;41.25;36.85;;;22.00;99.90;;;;;;5091436;28;20255;-53
2022/08/17 09:41:39;;;;;;;39.92;35.75;;;22.30;99.90;;;;;;5087688;28;20087;-53
2022/08/17 09:44:28;;;;;;;;;;;22.40;99.90;;;;;;5085148;28;20044;-52
2022/08/17 09:47:29;;;;;;;34.17;30.58;;;22.60;99.90;;;;;;5081057;28;19920;-52
2022/08/17 09:50:11;;;;;;;32.65;29.17;;;22.70;99.90;;;;;;5091351;28;20059;-53
2022/08/17 09:52:37;;;;;;;;;;;22.70;99.90;;;;;;5092854;28;20040;-53
2022/08/17 09:55:05;;;;;;;31.50;28.27;;;22.60;99.90;;;;;;5090665;28;20018;-53
2022/08/17 09:57:46;;;;;;;33.88;28.92;;;22.50;99.90;;;;;;5089941;28;20483;-53
2022/08/17 10:00:26;;;;;;;34.05;30.55;;;22.60;99.90;;;;;;5091983;28;20078;-52
2022/08/17 10:03:20;;;;;;;33.22;29.80;;;22.30;99.90;;;;;;5091227;28;20052;-53
2022/08/17 10:06:14;;;;;;;34.00;30.10;;;22.30;99.90;;;;;;5090043;28;20037;-52
2022/08/17 10:09:05;;;;;;;34.28;30.73;;;22.20;99.90;;;;;;5092350;28;20032;-54
2022/08/17 10:14:38;;;;;;;30.45;27.15;;;22.10;99.90;;;;;;5090127;28;20048;-53
2022/08/17 10:17:21;;;;;;;33.55;30.13;;;22.10;99.90;;;;;;5090581;28;20052;-52
2022/08/17 10:19:55;;;;;;;34.60;29.85;;;22.10;99.90;;;;;;5097106;28;20032;-51
2022/08/17 10:28:16;;;;;;;33.03;29.35;;;22.00;99.90;;;;;;5089743;28;20041;-53
2022/08/17 10:30:53;;;;;;;32.40;28.67;;;22.00;99.90;;;;;;5088855;28;20055;-53
2022/08/17 10:33:23;;;;;;;33.15;29.52;;;22.10;99.90;;;;;;5090535;28;20044;-54
2022/08/17 10:36:13;;;;;;;32.58;28.48;;;22.20;99.90;;;;;;5089958;28;20044;-53
2022/08/17 10:38:48;;;;;;;29.85;26.67;;;22.30;99.90;;;;;;5094917;28;20051;-52
2022/08/17 10:41:16;;;;;;;30.13;26.92;;;22.30;99.90;;;;;;5090678;28;20040;-52
2022/08/17 10:43:48;;;;;;;31.17;27.63;;;22.40;99.90;;;;;;5090059;28;20068;-51
2022/08/17 10:46:38;;;;;;;29.13;26.13;;;22.40;99.90;;;;;;5086811;28;20350;-54
2022/08/17 10:49:16;;;;;;;27.50;24.67;;;22.50;99.90;;;;;;5088392;28;20075;-53
2022/08/17 10:51:44;;;;;;;27.13;24.13;;;22.50;99.90;;;;;;5090012;28;20052;-50
2022/08/17 10:54:30;;;;;;;26.13;23.42;;;22.50;99.90;;;;;;5089158;28;20051;-51
2022/08/17 10:56:57;;;;;;;25.13;22.55;;;22.40;99.90;;;;;;5089674;28;20141;-52
2022/08/17 10:59:34;;;;;;;27.55;24.75;;;22.50;99.90;;;;;;5087696;28;20529;-52
2022/08/17 11:02:03;;;;;;;28.98;25.88;;;22.50;99.90;;;;;;5079438;28;20040;-52
2022/08/17 11:04:44;;;;;;;28.65;24.42;;;22.60;99.90;;;;;;5081066;28;20032;-52
2022/08/17 11:07:47;;;;;;;25.27;22.42;;;22.70;99.90;;;;;;5080179;28;20217;-52
2022/08/17 11:10:19;;;;;;;24.35;21.58;;;22.70;99.90;;;;;;5079160;28;20045;-52
2022/08/17 11:13:07;;;;;;;25.80;21.08;;;22.70;99.90;;;;;;5080733;28;20052;-52
2022/08/17 11:15:40;;;;;;;25.33;21.67;;;22.70;99.90;;;;;;5080033;28;20044;-49
2022/08/17 11:18:21;;;;;;;23.55;21.02;;;22.70;99.90;;;;;;5089455;28;20055;-52
2022/08/17 11:21:10;;;;;;;25.73;23.03;;;22.70;99.90;;;;;;5100721;28;20047;-53
2022/08/17 11:24:16;;;;;;;27.65;23.63;;;22.60;99.90;;;;;;5099451;28;20290;-53
2022/08/17 11:27:03;;;;;;;29.60;23.33;;;22.70;99.90;;;;;;5100422;28;20108;-52
2022/08/17 11:29:36;;;;;;;27.73;23.77;;;22.80;99.90;;;;;;5096368;28;20080;-53
2022/08/17 11:32:06;;;;;;;26.90;24.08;;;22.80;99.90;;;;;;5099239;28;20047;-50
2022/08/17 11:34:32;;;;;;;25.25;22.65;;;22.90;99.90;;;;;;5100583;28;20575;-52
2022/08/17 11:37:10;;;;;;;25.70;21.70;;;22.90;99.90;;;;;;5099850;28;20054;-51
2022/08/17 11:40:04;;;;;;;25.20;22.52;;;23.00;99.90;;;;;;5079500;28;20044;-52
2022/08/17 11:42:46;;;;;;;24.08;21.60;;;23.10;99.90;;;;;;5079947;28;20167;-51
2022/08/17 11:45:30;;;;;;;;;;;23.30;99.90;;;;;;5079674;28;20044;-49
2022/08/17 11:51:32;;;;;;;24.98;22.48;;;23.40;99.90;;;;;;5079953;28;20558;-50
2022/08/17 11:54:00;;;;;;;25.00;22.30;;;23.50;99.90;;;;;;5079157;28;20063;-50
2022/08/17 11:56:40;;;;;;;24.30;21.83;;;23.40;99.90;;;;;;5079683;28;20405;-49
2022/08/17 11:59:42;;;;;;;24.00;21.55;;;23.40;99.90;;;;;;5079248;28;20041;-49
2022/08/17 12:02:33;;;;;;;21.45;19.15;;;23.40;99.90;;;;;;5078276;28;20142;-51
2022/08/17 12:05:24;;;;;;;22.80;20.50;;;23.60;99.90;;;;;;5086631;28;20052;-49
2022/08/17 12:07:56;;;;;;;24.15;21.63;;;23.50;99.90;;;;;;5092419;28;20546;-51
2022/08/17 12:10:30;;;;;;;22.83;20.42;;;23.40;99.90;;;;;;5098734;28;20601;-50
2022/08/17 12:12:58;;;;;;;21.83;19.33;;;23.30;99.90;;;;;;5098239;28;20048;-51
2022/08/17 12:15:31;;;;;;;22.38;19.98;;;23.20;99.90;;;;;;5097089;28;20078;-51
2022/08/17 12:17:56;;;;;;;22.35;20.15;;;23.20;99.90;;;;;;5089784;28;20892;-51
2022/08/17 12:20:44;;;;;;;22.75;20.20;;;23.20;99.90;;;;;;5079116;28;20051;-51
2022/08/17 12:23:40;;;;;;;23.17;20.75;;;23.30;99.90;;;;;;5076932;28;20064;-49
2022/08/17 12:26:30;;;;;;;24.20;21.10;;;23.30;99.90;;;;;;5079191;28;20158;-50
2022/08/17 12:29:06;;;;;;;22.33;20.17;;;23.30;99.90;;;;;;5079119;28;20041;-52
2022/08/17 12:31:47;;;;;;;21.23;19.20;;;23.30;99.90;;;;;;5078201;28;20088;-52
2022/08/17 12:34:32;;;;;;;21.90;19.15;;;23.30;99.90;;;;;;5084447;28;20054;-53
2022/08/17 12:37:01;;;;;;;22.60;19.40;;;23.30;99.90;;;;;;5089234;28;20072;-49
2022/08/17 12:39:28;;;;;;;19.08;16.80;;;23.30;99.90;;;;;;5090275;28;20036;-51
2022/08/17 12:41:57;;;;;;;18.17;15.77;;;23.20;99.90;;;;;;5089384;28;20044;-51
2022/08/17 12:44:26;;;;;;;15.77;14.13;;;23.30;99.90;;;;;;5086521;28;20110;-51
2022/08/17 12:46:51;;;;;;;18.35;15.30;;;23.30;99.90;;;;;;5088702;28;20111;-52
2022/08/17 12:49:21;;;;;;;20.60;18.40;;;23.40;99.90;;;;;;5088553;28;20161;-50
2022/08/17 12:51:49;;;;;;;19.67;17.50;;;23.40;99.90;;;;;;5081894;28;20052;-52
2022/08/17 12:54:56;;;;;;;20.02;17.17;;;23.50;99.90;;;;;;5085407;28;20044;-51
2022/08/17 12:57:37;;;;;;;16.95;14.20;;;23.50;99.90;;;;;;5063692;28;20044;-50
2022/08/17 13:00:33;;;;;;;15.73;12.40;;;23.30;99.90;;;;;;5086510;28;20051;-53
2022/08/17 13:03:11;;;;;;;16.95;14.80;;;23.40;99.90;;;;;;5086479;28;20056;-51
2022/08/17 13:05:52;;;;;;;17.90;15.15;;;23.40;99.90;;;;;;5083914;28;20077;-52
2022/08/17 13:08:35;;;;;;;16.67;12.60;;;23.30;99.90;;;;;;5085907;28;20032;-51
2022/08/17 13:11:07;;;;;;;16.02;12.15;;;23.20;99.90;;;;;;5085069;28;20047;-52
2022/08/17 13:13:38;;;;;;;17.92;13.98;;;23.20;99.90;;;;;;5084909;28;20039;-51
2022/08/17 13:16:24;;;;;;;;;;;23.20;99.90;;;;;;5096736;28;20075;-52
2022/08/17 13:19:14;;;;;;;18.85;14.57;;;23.20;99.90;;;;;;5091123;28;19959;-51
2022/08/17 13:21:49;;;;;;;16.23;14.52;;;23.20;99.90;;;;;;5092554;28;20032;-53
2022/08/17 13:24:19;;;;;;;17.67;15.25;;;23.20;99.90;;;;;;5092792;28;20043;-50
2022/08/17 13:27:00;;;;;;;16.92;14.60;;;23.10;99.90;;;;;;5090766;28;20116;-51
2022/08/17 13:29:37;;;;;;;18.63;13.90;;;23.20;99.90;;;;;;5092240;28;20043;-50
2022/08/17 13:32:03;;;;;;;17.10;14.98;;;23.30;99.90;;;;;;5090215;28;20526;-52
2022/08/17 13:34:35;;;;;;;17.02;14.38;;;23.10;99.90;;;;;;5092539;28;20036;-52